Horseneck Beach, Massachusetts
Current Conditions -  °F | °C
As of 3:53 AM on Thursday 23 Oct 2014 (Local Time) from KEWB Reporting Station
Overcast Overcast  
Wind Chill: 55°   Ceiling: 900
Heat Index: 55°   Visibility: 10mi
Dew Point: 53°   Wind: 16mph
Humidity: 93%   Direction: 10°N
Pressure: 29.56"   Gusts: 25mph
Location:  41.6022°N, 71.0828°W
Report Text: KEWB 230753Z AUTO 01014G22KT 10SM OVC009 13/12 A2956 RMK AO2 RAB28E47 CIG 007V012 SLP010 P0000 T01280117
Loading
Personal Weather Stations






























Interactive Weather Map New forecast layout! Learn more

10-Day Weather Forecast

Advertisements
Track Severe Weather on mobile